Time,TemperatureF,DewpointF,PressureIn,WindDirection,WindDirectionDegrees,WindSpeedMPH,WindSpeedGustMPH,Humidity,HourlyPrecipIn,Conditions,Clouds,dailyrainin,SoftwareType,DateUTC
2013-05-05 00:00:00,50.6,43.7,30.26,East,92,0.0,0.0,77,0.00,,,0.00,Wunderground v.1.15,2013-05-05 04:00:00,
2013-05-05 00:10:00,49.9,43.6,30.26,East,92,0.0,0.0,79,0.00,,,0.00,Wunderground v.1.15,2013-05-05 04:10:00,
2013-05-05 00:20:00,49.2,43.6,30.25,East,92,0.0,1.0,81,0.00,,,0.00,Wunderground v.1.15,2013-05-05 04:20:00,
2013-05-05 00:30:00,48.8,42.9,30.25,East,92,1.0,1.0,80,0.00,,,0.00,Wunderground v.1.15,2013-05-05 04:30:00,
2013-05-05 00:40:00,48.6,43.4,30.25,East,92,1.0,1.0,82,0.00,,,0.00,Wunderground v.1.15,2013-05-05 04:40:00,
2013-05-05 00:50:00,48.4,42.8,30.25,East,92,0.0,1.0,81,0.00,,,0.00,Wunderground v.1.15,2013-05-05 04:50:00,
2013-05-05 01:00:00,48.3,43.7,30.25,East,92,0.0,0.0,84,0.00,,,0.00,Wunderground v.1.15,2013-05-05 05:00:00,
2013-05-05 01:10:00,48.0,43.4,30.25,East,92,0.0,0.0,84,0.00,,,0.00,Wunderground v.1.15,2013-05-05 05:10:00,
2013-05-05 01:20:00,47.7,42.5,30.24,East,92,0.0,0.0,82,0.00,,,0.00,Wunderground v.1.15,2013-05-05 05:20:00,
2013-05-05 01:30:00,48.0,43.4,30.24,East,89,1.0,1.0,84,0.00,,,0.00,Wunderground v.1.15,2013-05-05 05:30:00,
2013-05-05 01:40:00,48.3,43.7,30.23,North,9,1.0,2.0,84,0.00,,,0.00,Wunderground v.1.15,2013-05-05 05:40:00,
2013-05-05 01:50:00,48.3,43.1,30.23,North,9,1.0,2.0,82,0.00,,,0.00,Wunderground v.1.15,2013-05-05 05:50:00,
2013-05-05 02:00:00,48.3,43.1,30.23,North,9,0.0,0.0,82,0.00,,,0.00,Wunderground v.1.15,2013-05-05 06:00:00,
2013-05-05 02:10:00,47.6,42.7,30.23,North,9,0.0,1.0,83,0.00,,,0.00,Wunderground v.1.15,2013-05-05 06:10:00,
2013-05-05 02:20:00,46.7,41.8,30.23,North,9,0.0,0.0,83,0.00,,,0.00,Wunderground v.1.15,2013-05-05 06:20:00,
2013-05-05 02:30:00,46.1,41.8,30.23,North,9,1.0,1.0,85,0.00,,,0.00,Wunderground v.1.15,2013-05-05 06:30:00,
2013-05-05 02:40:00,45.4,41.5,30.23,North,9,0.0,3.0,86,0.00,,,0.00,Wunderground v.1.15,2013-05-05 06:40:00,
2013-05-05 02:50:00,45.0,41.4,30.22,North,9,0.0,3.0,87,0.00,,,0.00,Wunderground v.1.15,2013-05-05 06:50:00,
2013-05-05 03:01:00,44.6,41.3,30.22,North,9,0.0,0.0,88,0.00,,,0.00,Wunderground v.1.15,2013-05-05 07:01:00,
2013-05-05 03:10:00,44.3,40.7,30.22,North,9,0.0,0.0,87,0.00,,,0.00,Wunderground v.1.15,2013-05-05 07:10:00,
2013-05-05 03:20:00,44.0,40.7,30.22,North,9,0.0,0.0,88,0.00,,,0.00,Wunderground v.1.15,2013-05-05 07:20:00,
2013-05-05 03:30:00,43.8,40.5,30.22,North,9,0.0,0.0,88,0.00,,,0.00,Wunderground v.1.15,2013-05-05 07:30:00,
2013-05-05 03:40:00,44.2,40.6,30.22,North,9,0.0,2.0,87,0.00,,,0.00,Wunderground v.1.15,2013-05-05 07:40:00,
2013-05-05 03:50:00,44.7,40.5,30.22,North,9,0.0,2.0,85,0.00,,,0.00,Wunderground v.1.15,2013-05-05 07:50:00,
2013-05-05 04:00:00,45.2,40.3,30.22,North,355,0.0,0.0,83,0.00,,,0.00,Wunderground v.1.15,2013-05-05 08:00:00,
2013-05-05 04:10:00,45.1,39.9,30.21,North,355,1.0,1.0,82,0.00,,,0.00,Wunderground v.1.15,2013-05-05 08:10:00,
2013-05-05 04:20:00,44.9,39.7,30.22,North,355,1.0,1.0,82,0.00,,,0.00,Wunderground v.1.15,2013-05-05 08:20:00,
2013-05-05 04:30:00,44.7,39.9,30.21,North,355,1.0,2.0,83,0.00,,,0.00,Wunderground v.1.15,2013-05-05 08:30:00,
2013-05-05 04:40:00,44.6,40.4,30.22,North,355,1.0,1.0,85,0.00,,,0.00,Wunderground v.1.15,2013-05-05 08:40:00,
2013-05-05 04:50:00,44.3,39.5,30.22,North,355,0.0,2.0,83,0.00,,,0.00,Wunderground v.1.15,2013-05-05 08:50:00,
2013-05-05 05:00:00,43.8,39.6,30.22,North,355,0.0,1.0,85,0.00,,,0.00,Wunderground v.1.15,2013-05-05 09:00:00,
2013-05-05 05:10:00,43.5,39.3,30.22,North,351,0.0,1.0,85,0.00,,,0.00,Wunderground v.1.15,2013-05-05 09:10:00,
2013-05-05 05:20:00,43.6,39.1,30.22,SE,140,1.0,1.0,84,0.00,,,0.00,Wunderground v.1.15,2013-05-05 09:20:00,
2013-05-05 05:30:00,43.5,39.0,30.23,SSW,200,1.0,1.0,84,0.00,,,0.00,Wunderground v.1.15,2013-05-05 09:30:00,
2013-05-05 05:40:00,43.3,38.8,30.23,SSW,193,1.0,1.0,84,0.00,,,0.00,Wunderground v.1.15,2013-05-05 09:40:00,
2013-05-05 05:50:00,43.2,39.0,30.24,NNW,335,1.0,1.0,85,0.00,,,0.00,Wunderground v.1.15,2013-05-05 09:50:00,
2013-05-05 06:00:00,42.9,38.7,30.24,SSE,156,0.0,0.0,85,0.00,,,0.00,Wunderground v.1.15,2013-05-05 10:00:00,
2013-05-05 06:10:00,42.6,38.7,30.24,SSE,156,0.0,1.0,86,0.00,,,0.00,Wunderground v.1.15,2013-05-05 10:10:00,
2013-05-05 06:20:00,42.3,38.4,30.24,SSE,156,1.0,1.0,86,0.00,,,0.00,Wunderground v.1.15,2013-05-05 10:20:00,
2013-05-05 06:30:00,41.9,38.3,30.25,SSE,156,0.0,0.0,87,0.00,,,0.00,Wunderground v.1.15,2013-05-05 10:30:00,
2013-05-05 06:40:00,41.7,38.4,30.25,SSW,192,0.0,6.0,88,0.00,,,0.00,Wunderground v.1.15,2013-05-05 10:40:00,
2013-05-05 06:50:00,41.8,39.1,30.26,SSW,192,0.0,6.0,90,0.00,,,0.00,Wunderground v.1.15,2013-05-05 10:50:00,
2013-05-05 07:00:00,42.2,39.5,30.26,SSW,192,0.0,0.0,90,0.00,,,0.00,Wunderground v.1.15,2013-05-05 11:00:00,
2013-05-05 07:10:00,42.8,39.8,30.26,West,277,0.0,0.0,89,0.00,,,0.00,Wunderground v.1.15,2013-05-05 11:10:00,
2013-05-05 07:20:00,43.6,40.6,30.26,North,355,1.0,1.0,89,0.00,,,0.00,Wunderground v.1.15,2013-05-05 11:20:00,
2013-05-05 07:30:00,44.0,40.7,30.27,North,355,1.0,1.0,88,0.00,,,0.00,Wunderground v.1.15,2013-05-05 11:30:00,
2013-05-05 07:40:00,44.3,40.7,30.26,North,355,1.0,2.0,87,0.00,,,0.00,Wunderground v.1.15,2013-05-05 11:40:00,
2013-05-05 07:50:00,44.5,41.2,30.26,SW,221,1.0,2.0,88,0.00,,,0.00,Wunderground v.1.15,2013-05-05 11:50:00,
2013-05-05 08:00:00,44.9,41.3,30.26,NNW,333,1.0,1.0,87,0.00,,,0.00,Wunderground v.1.15,2013-05-05 12:00:00,
2013-05-05 08:10:00,45.3,41.1,30.27,NW,316,1.0,2.0,85,0.00,,,0.00,Wunderground v.1.15,2013-05-05 12:10:00,
2013-05-05 08:20:00,45.6,41.0,30.27,South,183,1.0,1.0,84,0.00,,,0.00,Wunderground v.1.15,2013-05-05 12:20:00,
2013-05-05 08:30:00,46.0,41.1,30.27,SW,224,0.0,1.0,83,0.00,,,0.00,Wunderground v.1.15,2013-05-05 12:30:00,
2013-05-05 08:40:00,46.2,41.0,30.27,SSW,202,1.0,4.0,82,0.00,,,0.00,Wunderground v.1.15,2013-05-05 12:40:00,
2013-05-05 08:50:00,46.5,41.3,30.28,NW,309,0.0,4.0,82,0.00,,,0.00,Wunderground v.1.15,2013-05-05 12:50:00,
2013-05-05 09:00:00,46.8,41.3,30.27,NW,318,1.0,1.0,81,0.00,,,0.00,Wunderground v.1.15,2013-05-05 13:00:00,
2013-05-05 09:10:00,47.1,41.6,30.28,NNW,338,1.0,2.0,81,0.00,,,0.00,Wunderground v.1.15,2013-05-05 13:10:00,
2013-05-05 09:20:00,47.4,41.2,30.27,ENE,64,1.0,1.0,79,0.00,,,0.00,Wunderground v.1.15,2013-05-05 13:20:00,
2013-05-05 09:30:00,47.4,41.2,30.27,North,5,2.0,3.0,79,0.00,,,0.00,Wunderground v.1.15,2013-05-05 13:30:00,
2013-05-05 09:40:00,47.3,41.1,30.27,NNW,344,3.0,3.0,79,0.00,,,0.00,Wunderground v.1.15,2013-05-05 13:40:00,
2013-05-05 09:50:00,47.6,41.1,30.27,NW,309,2.0,2.0,78,0.00,,,0.00,Wunderground v.1.15,2013-05-05 13:50:00,
2013-05-05 10:00:00,47.9,41.0,30.27,WSW,244,2.0,2.0,77,0.00,,,0.00,Wunderground v.1.15,2013-05-05 14:00:00,
2013-05-05 10:10:00,48.4,41.2,30.27,NNW,347,2.0,2.0,76,0.00,,,0.00,Wunderground v.1.15,2013-05-05 14:10:00,
2013-05-05 10:20:00,48.9,41.0,30.27,South,185,1.0,3.0,74,0.00,,,0.00,Wunderground v.1.15,2013-05-05 14:20:00,
2013-05-05 10:30:00,48.8,41.2,30.27,NNW,330,3.0,3.0,75,0.00,,,0.00,Wunderground v.1.15,2013-05-05 14:30:00,
2013-05-05 10:40:00,49.3,41.7,30.26,SSE,167,2.0,7.0,75,0.00,,,0.00,Wunderground v.1.15,2013-05-05 14:40:00,
2013-05-05 10:50:00,49.9,41.9,30.26,WNW,297,2.0,7.0,74,0.00,,,0.00,Wunderground v.1.15,2013-05-05 14:50:00,
2013-05-05 11:00:00,50.6,41.9,30.26,ESE,121,2.0,2.0,72,0.00,,,0.00,Wunderground v.1.15,2013-05-05 15:00:00,
2013-05-05 11:10:00,51.2,41.7,30.27,WNW,289,2.0,2.0,70,0.00,,,0.00,Wunderground v.1.15,2013-05-05 15:10:00,
2013-05-05 11:20:00,51.2,41.7,30.27,SSE,156,2.0,2.0,70,0.00,,,0.00,Wunderground v.1.15,2013-05-05 15:20:00,
2013-05-05 11:30:00,52.1,42.2,30.26,WNW,301,2.0,2.0,69,0.00,,,0.00,Wunderground v.1.15,2013-05-05 15:30:00,
2013-05-05 11:40:00,51.9,42.0,30.26,NW,313,2.0,12.0,69,0.00,,,0.00,Wunderground v.1.15,2013-05-05 15:40:00,
2013-05-05 11:50:00,52.6,42.3,30.26,NW,311,2.0,12.0,68,0.00,,,0.00,Wunderground v.1.15,2013-05-05 15:50:00,
2013-05-05 12:00:00,53.4,43.5,30.25,NNW,336,2.0,3.0,69,0.00,,,0.00,Wunderground v.1.15,2013-05-05 16:00:00,
2013-05-05 12:10:00,54.2,43.5,30.25,East,89,2.0,2.0,67,0.00,,,0.00,Wunderground v.1.15,2013-05-05 16:10:00,
2013-05-05 12:20:00,53.6,43.7,30.25,South,170,3.0,4.0,69,0.00,,,0.00,Wunderground v.1.15,2013-05-05 16:20:00,
2013-05-05 12:30:00,55.4,42.6,30.25,NW,320,3.0,4.0,62,0.00,,,0.00,Wunderground v.1.15,2013-05-05 16:30:00,
2013-05-05 12:40:00,55.4,45.0,30.24,SSE,155,2.0,10.0,68,0.00,,,0.00,Wunderground v.1.15,2013-05-05 16:40:00,
2013-05-05 12:50:00,56.5,43.2,30.24,North,5,2.0,10.0,61,0.00,,,0.00,Wunderground v.1.15,2013-05-05 16:50:00,
2013-05-05 13:00:00,55.6,43.2,30.24,North,360,2.0,2.0,63,0.00,,,0.00,Wunderground v.1.15,2013-05-05 17:00:00,
2013-05-05 13:10:00,56.9,44.4,30.23,SE,142,3.0,3.0,63,0.00,,,0.00,Wunderground v.1.15,2013-05-05 17:10:00,
2013-05-05 14:30:00,60.3,44.5,30.20,NW,315,2.0,3.0,56,0.00,,,0.00,Wunderground v.1.15,2013-05-05 18:30:00,
2013-05-05 14:40:00,60.7,45.4,30.19,East,90,2.0,9.0,57,0.00,,,0.00,Wunderground v.1.15,2013-05-05 18:40:00,
2013-05-05 14:50:00,61.3,44.0,30.19,NW,323,3.0,3.0,53,0.00,,,0.00,Wunderground v.1.15,2013-05-05 18:50:00,
2013-05-05 15:00:00,61.4,45.1,30.18,SSE,148,2.0,5.0,55,0.00,,,0.00,Wunderground v.1.15,2013-05-05 19:00:00,
2013-05-05 15:10:00,62.2,44.9,30.19,SE,138,3.0,9.0,53,0.00,,,0.00,Wunderground v.1.15,2013-05-05 19:10:00,
2013-05-05 15:20:00,62.6,45.2,30.18,NNW,329,3.0,3.0,53,0.00,,,0.00,Wunderground v.1.15,2013-05-05 19:20:00,
2013-05-05 15:30:00,63.0,45.6,30.18,SW,234,2.0,4.0,53,0.00,,,0.00,Wunderground v.1.15,2013-05-05 19:30:00,
2013-05-05 15:40:00,62.5,44.6,30.17,ESE,106,2.0,8.0,52,0.00,,,0.00,Wunderground v.1.15,2013-05-05 19:40:00,
2013-05-05 15:50:00,62.3,44.4,30.17,NNW,338,2.0,8.0,52,0.00,,,0.00,Wunderground v.1.15,2013-05-05 19:50:00,
2013-05-05 16:00:00,62.7,45.3,30.17,SSE,159,2.0,4.0,53,0.00,,,0.00,Wunderground v.1.15,2013-05-05 20:00:00,
2013-05-05 16:10:00,63.4,47.4,30.16,NW,316,2.0,2.0,56,0.00,,,0.00,Wunderground v.1.15,2013-05-05 20:10:00,
2013-05-05 16:20:00,62.9,46.0,30.16,ESE,115,3.0,3.0,54,0.00,,,0.00,Wunderground v.1.15,2013-05-05 20:20:00,
2013-05-05 16:30:00,62.5,45.6,30.17,NW,321,2.0,2.0,54,0.00,,,0.00,Wunderground v.1.15,2013-05-05 20:30:00,
2013-05-05 16:40:00,62.3,46.4,30.16,NNW,345,1.0,9.0,56,0.00,,,0.00,Wunderground v.1.15,2013-05-05 20:40:00,
2013-05-05 16:50:00,62.3,46.9,30.16,SE,129,2.0,2.0,57,0.00,,,0.00,Wunderground v.1.15,2013-05-05 20:50:00,
2013-05-05 17:00:00,63.7,46.7,30.16,SSE,162,2.0,2.0,54,0.00,,,0.00,Wunderground v.1.15,2013-05-05 21:00:00,
2013-05-05 17:10:00,64.2,47.7,30.15,WNW,301,2.0,3.0,55,0.00,,,0.00,Wunderground v.1.15,2013-05-05 21:10:00,
2013-05-05 17:20:00,64.5,47.0,30.16,North,10,2.0,2.0,53,0.00,,,0.00,Wunderground v.1.15,2013-05-05 21:20:00,
2013-05-05 17:30:00,64.4,46.9,30.15,East,84,2.0,2.0,53,0.00,,,0.00,Wunderground v.1.15,2013-05-05 21:30:00,
2013-05-05 17:40:00,64.6,46.6,30.15,SE,142,2.0,10.0,52,0.00,,,0.00,Wunderground v.1.15,2013-05-05 21:40:00,
2013-05-05 17:50:00,64.8,46.8,30.16,NW,323,2.0,10.0,52,0.00,,,0.00,Wunderground v.1.15,2013-05-05 21:50:00,
2013-05-05 18:00:00,64.9,46.3,30.15,ENE,61,1.0,4.0,51,0.00,,,0.00,Wunderground v.1.15,2013-05-05 22:00:00,
2013-05-05 18:10:00,64.4,46.9,30.15,SSE,159,2.0,2.0,53,0.00,,,0.00,Wunderground v.1.15,2013-05-05 22:10:00,
2013-05-05 18:20:00,64.0,46.5,30.15,SE,145,3.0,3.0,53,0.00,,,0.00,Wunderground v.1.15,2013-05-05 22:20:00,
2013-05-05 18:30:00,63.4,46.5,30.15,South,177,3.0,3.0,54,0.00,,,0.00,Wunderground v.1.15,2013-05-05 22:30:00,
2013-05-05 18:40:00,63.1,46.7,30.15,ENE,71,3.0,9.0,55,0.00,,,0.00,Wunderground v.1.15,2013-05-05 22:40:00,
2013-05-05 18:50:00,62.4,46.5,30.15,East,94,2.0,2.0,56,0.00,,,0.00,Wunderground v.1.15,2013-05-05 22:50:00,
2013-05-05 19:00:00,62.1,46.7,30.14,SE,127,2.0,2.0,57,0.00,,,0.00,Wunderground v.1.15,2013-05-05 23:00:00,
2013-05-05 19:10:00,61.9,47.4,30.14,WSW,250,1.0,1.0,59,0.00,,,0.00,Wunderground v.1.15,2013-05-05 23:10:00,
2013-05-05 19:20:00,61.6,47.1,30.15,ESE,104,1.0,1.0,59,0.00,,,0.00,Wunderground v.1.15,2013-05-05 23:20:00,
2013-05-05 19:30:00,61.5,47.0,30.14,SE,141,1.0,1.0,59,0.00,,,0.00,Wunderground v.1.15,2013-05-05 23:30:00,
2013-05-05 19:40:00,61.2,47.2,30.15,SE,146,0.0,8.0,60,0.00,,,0.00,Wunderground v.1.15,2013-05-05 23:40:00,
2013-05-05 19:50:00,60.8,47.7,30.15,SSE,148,1.0,1.0,62,0.00,,,0.00,Wunderground v.1.15,2013-05-05 23:50:00,
2013-05-05 20:00:00,60.2,47.6,30.15,WSW,252,1.0,1.0,63,0.00,,,0.00,Wunderground v.1.15,2013-05-06 00:00:00,
2013-05-05 20:10:00,59.8,47.6,30.16,WSW,251,1.0,1.0,64,0.00,,,0.00,Wunderground v.1.15,2013-05-06 00:10:00,
2013-05-05 20:20:00,59.5,47.3,30.16,South,171,1.0,1.0,64,0.00,,,0.00,Wunderground v.1.15,2013-05-06 00:20:00,
2013-05-05 20:30:00,59.2,47.4,30.16,NNW,346,1.0,2.0,65,0.00,,,0.00,Wunderground v.1.15,2013-05-06 00:30:00,
2013-05-05 20:40:00,58.9,47.2,30.16,WSW,242,1.0,3.0,65,0.00,,,0.00,Wunderground v.1.15,2013-05-06 00:40:00,
2013-05-05 20:50:00,58.6,47.3,30.16,WNW,297,1.0,3.0,66,0.00,,,0.00,Wunderground v.1.15,2013-05-06 00:50:00,
2013-05-05 21:00:00,58.4,47.5,30.17,West,275,1.0,1.0,67,0.00,,,0.00,Wunderground v.1.15,2013-05-06 01:00:00,
2013-05-05 21:10:00,58.2,47.7,30.17,NNE,28,1.0,2.0,68,0.00,,,0.00,Wunderground v.1.15,2013-05-06 01:10:00,
2013-05-05 21:20:00,58.0,47.5,30.17,West,272,1.0,1.0,68,0.00,,,0.00,Wunderground v.1.15,2013-05-06 01:20:00,
2013-05-05 21:30:00,57.8,47.7,30.17,East,97,1.0,2.0,69,0.00,,,0.00,Wunderground v.1.15,2013-05-06 01:30:00,
2013-05-05 21:40:00,57.7,47.6,30.18,SE,127,1.0,1.0,69,0.00,,,0.00,Wunderground v.1.15,2013-05-06 01:40:00,
2013-05-05 21:50:00,57.5,47.8,30.18,NE,52,1.0,4.0,70,0.00,,,0.00,Wunderground v.1.15,2013-05-06 01:50:00,
2013-05-05 22:00:00,57.5,48.2,30.18,WNW,294,0.0,0.0,71,0.00,,,0.00,Wunderground v.1.15,2013-05-06 02:00:00,
2013-05-05 22:10:00,57.3,48.0,30.18,NNE,13,0.0,1.0,71,0.00,,,0.00,Wunderground v.1.15,2013-05-06 02:10:00,
2013-05-05 22:20:00,57.2,47.9,30.18,West,280,1.0,2.0,71,0.00,,,0.00,Wunderground v.1.15,2013-05-06 02:20:00,
2013-05-05 22:30:00,57.1,48.2,30.19,West,281,1.0,1.0,72,0.00,,,0.00,Wunderground v.1.15,2013-05-06 02:30:00,
2013-05-05 22:40:00,57.1,48.2,30.19,WNW,294,1.0,5.0,72,0.00,,,0.00,Wunderground v.1.15,2013-05-06 02:40:00,
2013-05-05 22:50:00,57.0,48.4,30.18,SSE,159,0.0,5.0,73,0.00,,,0.00,Wunderground v.1.15,2013-05-06 02:50:00,
2013-05-05 23:00:00,56.9,48.0,30.19,SSW,211,1.0,1.0,72,0.00,,,0.00,Wunderground v.1.15,2013-05-06 03:00:00,
2013-05-05 23:10:00,56.8,47.9,30.19,SW,221,1.0,1.0,72,0.00,,,0.00,Wunderground v.1.15,2013-05-06 03:10:00,
2013-05-05 23:20:00,56.7,48.1,30.19,West,281,1.0,1.0,73,0.00,,,0.00,Wunderground v.1.15,2013-05-06 03:20:00,
2013-05-05 23:30:00,56.6,48.4,30.19,West,273,1.0,1.0,74,0.00,,,0.00,Wunderground v.1.15,2013-05-06 03:30:00,
2013-05-05 23:40:00,56.5,48.3,30.18,WNW,287,1.0,3.0,74,0.00,,,0.00,Wunderground v.1.15,2013-05-06 03:40:00,
2013-05-05 23:50:00,56.3,48.1,30.18,NNW,344,1.0,3.0,74,0.00,,,0.00,Wunderground v.1.15,2013-05-06 03:50:00,